sensor_id;sensor_type;location;lat;lon;timestamp;P1;durP1;ratioP1;P2;durP2;ratioP2
19225;SDS011;9747;48.536;12.522;2023-08-06T00:01:12;5.30;;;5.00;;
19225;SDS011;9747;48.536;12.522;2023-08-06T00:03:39;5.10;;;4.80;;
19225;SDS011;9747;48.536;12.522;2023-08-06T00:06:08;4.70;;;4.40;;
19225;SDS011;9747;48.536;12.522;2023-08-06T00:08:35;5.05;;;4.72;;
19225;SDS011;9747;48.536;12.522;2023-08-06T00:11:02;4.72;;;4.43;;
19225;SDS011;9747;48.536;12.522;2023-08-06T00:13:30;4.70;;;4.40;;
19225;SDS011;9747;48.536;12.522;2023-08-06T00:16:07;5.05;;;4.70;;
19225;SDS011;9747;48.536;12.522;2023-08-06T00:18:35;5.28;;;4.70;;
19225;SDS011;9747;48.536;12.522;2023-08-06T00:21:03;5.28;;;4.88;;
19225;SDS011;9747;48.536;12.522;2023-08-06T00:23:32;4.78;;;4.47;;
19225;SDS011;9747;48.536;12.522;2023-08-06T00:25:59;4.97;;;4.57;;
19225;SDS011;9747;48.536;12.522;2023-08-06T00:28:26;4.90;;;4.60;;
19225;SDS011;9747;48.536;12.522;2023-08-06T00:30:54;4.78;;;4.47;;
19225;SDS011;9747;48.536;12.522;2023-08-06T00:33:21;5.40;;;4.90;;
19225;SDS011;9747;48.536;12.522;2023-08-06T00:35:49;4.80;;;4.50;;
19225;SDS011;9747;48.536;12.522;2023-08-06T00:38:17;4.10;;;3.90;;
19225;SDS011;9747;48.536;12.522;2023-08-06T00:40:45;4.40;;;4.20;;
19225;SDS011;9747;48.536;12.522;2023-08-06T00:43:13;4.55;;;4.35;;
19225;SDS011;9747;48.536;12.522;2023-08-06T00:45:40;4.50;;;4.30;;
19225;SDS011;9747;48.536;12.522;2023-08-06T00:48:07;4.60;;;4.28;;
19225;SDS011;9747;48.536;12.522;2023-08-06T00:50:35;4.53;;;4.22;;
19225;SDS011;9747;48.536;12.522;2023-08-06T00:53:02;4.50;;;4.20;;
19225;SDS011;9747;48.536;12.522;2023-08-06T00:55:30;4.93;;;4.43;;
19225;SDS011;9747;48.536;12.522;2023-08-06T00:57:58;4.60;;;4.30;;
19225;SDS011;9747;48.536;12.522;2023-08-06T01:00:26;4.53;;;4.22;;
19225;SDS011;9747;48.536;12.522;2023-08-06T01:02:54;4.45;;;4.15;;
19225;SDS011;9747;48.536;12.522;2023-08-06T01:05:21;4.05;;;3.85;;
19225;SDS011;9747;48.536;12.522;2023-08-06T01:07:51;4.50;;;4.20;;
19225;SDS011;9747;48.536;12.522;2023-08-06T01:10:38;4.15;;;3.95;;
19225;SDS011;9747;48.536;12.522;2023-08-06T01:13:16;4.20;;;4.00;;
19225;SDS011;9747;48.536;12.522;2023-08-06T01:15:51;4.15;;;3.95;;
19225;SDS011;9747;48.536;12.522;2023-08-06T01:18:23;4.28;;;4.00;;
19225;SDS011;9747;48.536;12.522;2023-08-06T01:20:52;3.97;;;3.78;;
19225;SDS011;9747;48.536;12.522;2023-08-06T01:23:19;4.22;;;3.92;;
19225;SDS011;9747;48.536;12.522;2023-08-06T01:25:49;4.15;;;3.85;;
19225;SDS011;9747;48.536;12.522;2023-08-06T01:28:31;3.70;;;3.50;;
19225;SDS011;9747;48.536;12.522;2023-08-06T01:31:04;3.70;;;3.50;;
19225;SDS011;9747;48.536;12.522;2023-08-06T01:33:36;4.18;;;3.97;;
19225;SDS011;9747;48.536;12.522;2023-08-06T01:36:08;3.72;;;3.50;;
19225;SDS011;9747;48.536;12.522;2023-08-06T01:38:35;3.83;;;3.63;;
19225;SDS011;9747;48.536;12.522;2023-08-06T01:41:03;3.83;;;3.63;;
19225;SDS011;9747;48.536;12.522;2023-08-06T01:43:30;3.92;;;3.72;;
19225;SDS011;9747;48.536;12.522;2023-08-06T01:45:57;3.78;;;3.58;;
19225;SDS011;9747;48.536;12.522;2023-08-06T01:48:25;3.63;;;3.42;;
19225;SDS011;9747;48.536;12.522;2023-08-06T01:50:52;3.88;;;3.67;;
19225;SDS011;9747;48.536;12.522;2023-08-06T01:53:21;3.40;;;3.28;;
19225;SDS011;9747;48.536;12.522;2023-08-06T01:55:48;3.72;;;3.47;;
19225;SDS011;9747;48.536;12.522;2023-08-06T01:58:16;3.67;;;3.45;;
19225;SDS011;9747;48.536;12.522;2023-08-06T02:00:43;3.78;;;3.58;;
19225;SDS011;9747;48.536;12.522;2023-08-06T02:03:10;3.60;;;3.40;;
19225;SDS011;9747;48.536;12.522;2023-08-06T02:05:39;3.47;;;3.28;;
19225;SDS011;9747;48.536;12.522;2023-08-06T02:08:07;3.60;;;3.40;;
19225;SDS011;9747;48.536;12.522;2023-08-06T02:10:36;3.60;;;3.40;;
19225;SDS011;9747;48.536;12.522;2023-08-06T02:13:03;3.35;;;3.20;;
19225;SDS011;9747;48.536;12.522;2023-08-06T02:15:31;3.47;;;3.38;;
19225;SDS011;9747;48.536;12.522;2023-08-06T02:17:58;3.10;;;3.00;;
19225;SDS011;9747;48.536;12.522;2023-08-06T02:20:26;3.13;;;3.00;;
19225;SDS011;9747;48.536;12.522;2023-08-06T02:22:54;3.35;;;3.17;;
19225;SDS011;9747;48.536;12.522;2023-08-06T02:25:21;3.58;;;3.38;;
19225;SDS011;9747;48.536;12.522;2023-08-06T02:27:50;3.30;;;3.20;;
19225;SDS011;9747;48.536;12.522;2023-08-06T02:30:17;3.30;;;3.20;;
19225;SDS011;9747;48.536;12.522;2023-08-06T02:32:44;3.72;;;3.53;;
19225;SDS011;9747;48.536;12.522;2023-08-06T02:35:12;3.17;;;3.08;;
19225;SDS011;9747;48.536;12.522;2023-08-06T02:37:39;3.00;;;2.90;;
19225;SDS011;9747;48.536;12.522;2023-08-06T02:40:07;3.30;;;3.20;;
19225;SDS011;9747;48.536;12.522;2023-08-06T02:42:35;2.92;;;2.83;;
19225;SDS011;9747;48.536;12.522;2023-08-06T02:45:04;3.00;;;2.90;;
19225;SDS011;9747;48.536;12.522;2023-08-06T02:47:33;3.15;;;2.95;;
19225;SDS011;9747;48.536;12.522;2023-08-06T02:50:01;3.25;;;3.05;;
19225;SDS011;9747;48.536;12.522;2023-08-06T02:52:29;3.13;;;3.03;;
19225;SDS011;9747;48.536;12.522;2023-08-06T02:54:57;3.10;;;2.90;;
19225;SDS011;9747;48.536;12.522;2023-08-06T02:57:26;3.33;;;3.05;;
19225;SDS011;9747;48.536;12.522;2023-08-06T02:59:55;3.08;;;2.97;;
19225;SDS011;9747;48.536;12.522;2023-08-06T03:02:24;2.72;;;2.63;;
19225;SDS011;9747;48.536;12.522;2023-08-06T03:05:00;3.13;;;3.00;;
19225;SDS011;9747;48.536;12.522;2023-08-06T03:07:33;2.83;;;2.72;;
19225;SDS011;9747;48.536;12.522;2023-08-06T03:10:08;3.78;;;3.47;;
19225;SDS011;9747;48.536;12.522;2023-08-06T03:12:36;3.20;;;3.00;;
19225;SDS011;9747;48.536;12.522;2023-08-06T03:15:05;2.97;;;2.88;;
19225;SDS011;9747;48.536;12.522;2023-08-06T03:17:35;3.03;;;2.92;;
19225;SDS011;9747;48.536;12.522;2023-08-06T03:20:04;3.13;;;3.03;;
19225;SDS011;9747;48.536;12.522;2023-08-06T03:22:34;2.90;;;2.70;;
19225;SDS011;9747;48.536;12.522;2023-08-06T03:25:02;2.70;;;2.60;;
19225;SDS011;9747;48.536;12.522;2023-08-06T03:27:30;2.70;;;2.60;;
19225;SDS011;9747;48.536;12.522;2023-08-06T03:29:57;2.90;;;2.80;;
19225;SDS011;9747;48.536;12.522;2023-08-06T03:32:26;2.50;;;2.40;;
19225;SDS011;9747;48.536;12.522;2023-08-06T03:34:56;2.55;;;2.45;;
19225;SDS011;9747;48.536;12.522;2023-08-06T03:37:26;2.75;;;2.65;;
19225;SDS011;9747;48.536;12.522;2023-08-06T03:39:54;2.92;;;2.83;;
19225;SDS011;9747;48.536;12.522;2023-08-06T03:42:21;2.75;;;2.65;;
19225;SDS011;9747;48.536;12.522;2023-08-06T03:44:49;2.65;;;2.55;;
19225;SDS011;9747;48.536;12.522;2023-08-06T03:47:16;2.83;;;2.72;;
19225;SDS011;9747;48.536;12.522;2023-08-06T03:49:47;2.83;;;2.72;;
19225;SDS011;9747;48.536;12.522;2023-08-06T03:52:17;2.88;;;2.72;;
19225;SDS011;9747;48.536;12.522;2023-08-06T03:54:46;2.60;;;2.50;;
19225;SDS011;9747;48.536;12.522;2023-08-06T03:57:13;3.03;;;2.83;;
19225;SDS011;9747;48.536;12.522;2023-08-06T03:59:41;2.42;;;2.33;;
19225;SDS011;9747;48.536;12.522;2023-08-06T04:02:08;2.60;;;2.50;;
19225;SDS011;9747;48.536;12.522;2023-08-06T04:04:36;2.65;;;2.55;;
19225;SDS011;9747;48.536;12.522;2023-08-06T04:07:04;2.45;;;2.35;;
19225;SDS011;9747;48.536;12.522;2023-08-06T04:09:33;2.60;;;2.50;;
19225;SDS011;9747;48.536;12.522;2023-08-06T04:12:01;2.47;;;2.38;;
19225;SDS011;9747;48.536;12.522;2023-08-06T04:14:29;2.45;;;2.35;;
19225;SDS011;9747;48.536;12.522;2023-08-06T04:16:57;2.38;;;2.20;;
19225;SDS011;9747;48.536;12.522;2023-08-06T04:19:24;2.50;;;2.40;;
19225;SDS011;9747;48.536;12.522;2023-08-06T04:21:52;2.45;;;2.35;;
19225;SDS011;9747;48.536;12.522;2023-08-06T04:24:19;2.50;;;2.40;;
19225;SDS011;9747;48.536;12.522;2023-08-06T04:26:48;2.20;;;2.10;;
19225;SDS011;9747;48.536;12.522;2023-08-06T04:29:15;2.20;;;2.20;;
19225;SDS011;9747;48.536;12.522;2023-08-06T04:31:43;2.65;;;2.55;;
19225;SDS011;9747;48.536;12.522;2023-08-06T04:34:12;2.53;;;2.42;;
19225;SDS011;9747;48.536;12.522;2023-08-06T04:36:39;2.60;;;2.50;;
19225;SDS011;9747;48.536;12.522;2023-08-06T04:39:08;2.40;;;2.30;;
19225;SDS011;9747;48.536;12.522;2023-08-06T04:41:36;2.47;;;2.38;;
19225;SDS011;9747;48.536;12.522;2023-08-06T04:44:04;2.17;;;2.17;;
19225;SDS011;9747;48.536;12.522;2023-08-06T04:46:32;2.75;;;2.65;;
19225;SDS011;9747;48.536;12.522;2023-08-06T04:48:59;2.20;;;2.10;;
19225;SDS011;9747;48.536;12.522;2023-08-06T04:51:26;2.13;;;2.13;;
19225;SDS011;9747;48.536;12.522;2023-08-06T04:53:54;2.35;;;2.25;;
19225;SDS011;9747;48.536;12.522;2023-08-06T04:56:23;2.20;;;2.10;;
19225;SDS011;9747;48.536;12.522;2023-08-06T04:58:51;2.28;;;2.17;;
19225;SDS011;9747;48.536;12.522;2023-08-06T05:01:19;2.40;;;2.30;;
19225;SDS011;9747;48.536;12.522;2023-08-06T05:03:47;2.25;;;2.15;;
19225;SDS011;9747;48.536;12.522;2023-08-06T05:06:14;2.22;;;2.13;;
19225;SDS011;9747;48.536;12.522;2023-08-06T05:08:42;2.47;;;2.30;;
19225;SDS011;9747;48.536;12.522;2023-08-06T05:11:09;2.40;;;2.20;;
19225;SDS011;9747;48.536;12.522;2023-08-06T05:13:36;2.28;;;2.17;;
19225;SDS011;9747;48.536;12.522;2023-08-06T05:16:04;2.40;;;2.30;;
19225;SDS011;9747;48.536;12.522;2023-08-06T05:18:33;2.00;;;1.90;;
19225;SDS011;9747;48.536;12.522;2023-08-06T05:21:02;2.35;;;2.25;;
19225;SDS011;9747;48.536;12.522;2023-08-06T05:23:30;2.40;;;2.30;;
19225;SDS011;9747;48.536;12.522;2023-08-06T05:25:57;2.10;;;2.10;;
19225;SDS011;9747;48.536;12.522;2023-08-06T05:28:25;2.40;;;2.20;;
19225;SDS011;9747;48.536;12.522;2023-08-06T05:30:52;2.42;;;2.33;;
19225;SDS011;9747;48.536;12.522;2023-08-06T05:33:19;2.40;;;2.30;;
19225;SDS011;9747;48.536;12.522;2023-08-06T05:35:48;2.30;;;2.20;;
19225;SDS011;9747;48.536;12.522;2023-08-06T05:38:16;2.30;;;2.20;;
19225;SDS011;9747;48.536;12.522;2023-08-06T05:40:43;2.35;;;2.20;;
19225;SDS011;9747;48.536;12.522;2023-08-06T05:43:11;2.30;;;2.20;;
19225;SDS011;9747;48.536;12.522;2023-08-06T05:45:38;2.35;;;2.25;;
19225;SDS011;9747;48.536;12.522;2023-08-06T05:48:06;2.38;;;2.28;;
19225;SDS011;9747;48.536;12.522;2023-08-06T05:50:33;2.30;;;2.20;;
19225;SDS011;9747;48.536;12.522;2023-08-06T05:53:02;2.15;;;2.10;;
19225;SDS011;9747;48.536;12.522;2023-08-06T05:55:29;2.00;;;2.00;;
19225;SDS011;9747;48.536;12.522;2023-08-06T05:57:57;2.33;;;2.22;;
19225;SDS011;9747;48.536;12.522;2023-08-06T06:00:25;2.20;;;2.10;;
19225;SDS011;9747;48.536;12.522;2023-08-06T06:02:52;2.15;;;2.05;;
19225;SDS011;9747;48.536;12.522;2023-08-06T06:05:20;2.03;;;2.00;;
19225;SDS011;9747;48.536;12.522;2023-08-06T06:07:47;1.90;;;1.90;;
19225;SDS011;9747;48.536;12.522;2023-08-06T06:10:16;2.00;;;2.00;;
19225;SDS011;9747;48.536;12.522;2023-08-06T06:12:44;2.20;;;2.00;;
19225;SDS011;9747;48.536;12.522;2023-08-06T06:15:11;2.20;;;2.10;;
19225;SDS011;9747;48.536;12.522;2023-08-06T06:17:38;2.08;;;1.98;;
19225;SDS011;9747;48.536;12.522;2023-08-06T06:20:06;2.08;;;1.98;;
19225;SDS011;9747;48.536;12.522;2023-08-06T06:22:34;1.98;;;1.90;;
19225;SDS011;9747;48.536;12.522;2023-08-06T06:25:02;1.90;;;1.90;;
19225;SDS011;9747;48.536;12.522;2023-08-06T06:27:32;2.33;;;2.22;;
19225;SDS011;9747;48.536;12.522;2023-08-06T06:29:59;2.30;;;2.10;;
19225;SDS011;9747;48.536;12.522;2023-08-06T06:32:26;1.70;;;1.70;;
19225;SDS011;9747;48.536;12.522;2023-08-06T06:34:54;2.00;;;1.95;;
19225;SDS011;9747;48.536;12.522;2023-08-06T06:37:21;2.10;;;2.00;;
19225;SDS011;9747;48.536;12.522;2023-08-06T06:39:49;2.35;;;1.80;;
19225;SDS011;9747;48.536;12.522;2023-08-06T06:42:16;1.90;;;1.80;;
19225;SDS011;9747;48.536;12.522;2023-08-06T06:44:50;1.83;;;1.83;;
19225;SDS011;9747;48.536;12.522;2023-08-06T06:47:18;1.95;;;1.85;;
19225;SDS011;9747;48.536;12.522;2023-08-06T06:49:45;1.85;;;1.80;;
19225;SDS011;9747;48.536;12.522;2023-08-06T06:52:13;2.00;;;1.90;;
19225;SDS011;9747;48.536;12.522;2023-08-06T06:54:41;1.77;;;1.77;;
19225;SDS011;9747;48.536;12.522;2023-08-06T06:57:08;2.05;;;1.95;;
19225;SDS011;9747;48.536;12.522;2023-08-06T06:59:35;3.05;;;1.83;;
19225;SDS011;9747;48.536;12.522;2023-08-06T07:02:05;2.10;;;2.00;;
19225;SDS011;9747;48.536;12.522;2023-08-06T07:04:32;2.85;;;1.92;;
19225;SDS011;9747;48.536;12.522;2023-08-06T07:06:59;2.13;;;1.92;;
19225;SDS011;9747;48.536;12.522;2023-08-06T07:09:27;2.17;;;2.08;;
19225;SDS011;9747;48.536;12.522;2023-08-06T07:11:54;2.45;;;1.70;;
19225;SDS011;9747;48.536;12.522;2023-08-06T07:14:22;2.75;;;1.67;;
19225;SDS011;9747;48.536;12.522;2023-08-06T07:16:50;1.75;;;1.65;;
19225;SDS011;9747;48.536;12.522;2023-08-06T07:19:19;4.82;;;2.00;;
19225;SDS011;9747;48.536;12.522;2023-08-06T07:21:46;2.25;;;2.15;;
19225;SDS011;9747;48.536;12.522;2023-08-06T07:24:14;2.25;;;2.05;;
19225;SDS011;9747;48.536;12.522;2023-08-06T07:26:41;2.08;;;1.90;;
19225;SDS011;9747;48.536;12.522;2023-08-06T07:29:09;2.72;;;1.98;;
19225;SDS011;9747;48.536;12.522;2023-08-06T07:31:36;3.53;;;1.75;;
19225;SDS011;9747;48.536;12.522;2023-08-06T07:34:03;2.30;;;2.10;;
19225;SDS011;9747;48.536;12.522;2023-08-06T07:36:32;2.20;;;2.00;;
19225;SDS011;9747;48.536;12.522;2023-08-06T07:38:59;2.47;;;2.03;;
19225;SDS011;9747;48.536;12.522;2023-08-06T07:41:26;3.42;;;2.00;;
19225;SDS011;9747;48.536;12.522;2023-08-06T07:43:54;1.90;;;1.80;;
19225;SDS011;9747;48.536;12.522;2023-08-06T07:46:21;2.97;;;1.80;;
19225;SDS011;9747;48.536;12.522;2023-08-06T07:48:49;1.90;;;1.80;;
19225;SDS011;9747;48.536;12.522;2023-08-06T07:51:16;2.95;;;2.00;;
19225;SDS011;9747;48.536;12.522;2023-08-06T07:53:45;2.58;;;1.80;;
19225;SDS011;9747;48.536;12.522;2023-08-06T07:56:12;2.63;;;2.42;;
19225;SDS011;9747;48.536;12.522;2023-08-06T07:58:40;2.45;;;1.60;;
19225;SDS011;9747;48.536;12.522;2023-08-06T08:01:07;2.05;;;1.95;;
19225;SDS011;9747;48.536;12.522;2023-08-06T08:03:35;2.08;;;1.88;;
19225;SDS011;9747;48.536;12.522;2023-08-06T08:06:02;2.42;;;2.00;;
19225;SDS011;9747;48.536;12.522;2023-08-06T08:08:30;2.25;;;1.90;;
19225;SDS011;9747;48.536;12.522;2023-08-06T08:10:58;3.78;;;2.10;;
19225;SDS011;9747;48.536;12.522;2023-08-06T08:13:26;2.35;;;1.65;;
19225;SDS011;9747;48.536;12.522;2023-08-06T08:15:56;1.83;;;1.67;;
19225;SDS011;9747;48.536;12.522;2023-08-06T08:18:24;4.40;;;1.92;;
19225;SDS011;9747;48.536;12.522;2023-08-06T08:20:52;2.30;;;1.90;;
19225;SDS011;9747;48.536;12.522;2023-08-06T08:23:20;1.70;;;1.60;;
19225;SDS011;9747;48.536;12.522;2023-08-06T08:25:47;2.08;;;1.50;;
19225;SDS011;9747;48.536;12.522;2023-08-06T08:28:16;2.65;;;1.75;;
19225;SDS011;9747;48.536;12.522;2023-08-06T08:30:43;3.63;;;1.58;;
19225;SDS011;9747;48.536;12.522;2023-08-06T08:33:10;1.80;;;1.70;;
19225;SDS011;9747;48.536;12.522;2023-08-06T08:35:38;3.03;;;1.67;;
19225;SDS011;9747;48.536;12.522;2023-08-06T08:38:05;2.40;;;1.77;;
19225;SDS011;9747;48.536;12.522;2023-08-06T08:40:33;2.25;;;1.60;;
19225;SDS011;9747;48.536;12.522;2023-08-06T08:43:02;2.85;;;1.50;;
19225;SDS011;9747;48.536;12.522;2023-08-06T08:45:30;3.03;;;1.70;;
19225;SDS011;9747;48.536;12.522;2023-08-06T08:48:00;2.22;;;1.70;;
19225;SDS011;9747;48.536;12.522;2023-08-06T08:50:28;3.20;;;1.85;;
19225;SDS011;9747;48.536;12.522;2023-08-06T08:52:55;5.10;;;2.00;;
19225;SDS011;9747;48.536;12.522;2023-08-06T08:55:23;3.60;;;1.60;;
19225;SDS011;9747;48.536;12.522;2023-08-06T08:57:51;2.55;;;1.60;;
19225;SDS011;9747;48.536;12.522;2023-08-06T09:00:18;1.77;;;1.60;;
19225;SDS011;9747;48.536;12.522;2023-08-06T09:02:47;1.70;;;1.60;;
19225;SDS011;9747;48.536;12.522;2023-08-06T09:05:14;6.70;;;2.05;;
19225;SDS011;9747;48.536;12.522;2023-08-06T09:07:42;5.82;;;2.70;;
19225;SDS011;9747;48.536;12.522;2023-08-06T09:10:11;13.73;;;3.85;;
19225;SDS011;9747;48.536;12.522;2023-08-06T09:12:40;9.82;;;3.15;;
19225;SDS011;9747;48.536;12.522;2023-08-06T09:15:09;9.57;;;3.55;;
19225;SDS011;9747;48.536;12.522;2023-08-06T09:17:38;4.72;;;2.80;;
19225;SDS011;9747;48.536;12.522;2023-08-06T09:20:11;11.52;;;3.33;;
19225;SDS011;9747;48.536;12.522;2023-08-06T09:22:40;6.20;;;2.80;;
19225;SDS011;9747;48.536;12.522;2023-08-06T09:25:09;5.55;;;2.70;;
19225;SDS011;9747;48.536;12.522;2023-08-06T09:27:38;6.20;;;2.30;;
19225;SDS011;9747;48.536;12.522;2023-08-06T09:30:06;4.55;;;2.20;;
19225;SDS011;9747;48.536;12.522;2023-08-06T09:32:47;5.32;;;2.30;;
19225;SDS011;9747;48.536;12.522;2023-08-06T09:35:18;4.65;;;2.30;;
19225;SDS011;9747;48.536;12.522;2023-08-06T09:37:45;4.95;;;2.13;;
19225;SDS011;9747;48.536;12.522;2023-08-06T09:40:25;3.70;;;2.17;;
19225;SDS011;9747;48.536;12.522;2023-08-06T09:42:54;3.60;;;2.00;;
19225;SDS011;9747;48.536;12.522;2023-08-06T09:45:22;3.42;;;1.95;;
19225;SDS011;9747;48.536;12.522;2023-08-06T09:47:55;2.30;;;1.77;;
19225;SDS011;9747;48.536;12.522;2023-08-06T09:50:26;4.38;;;1.83;;
19225;SDS011;9747;48.536;12.522;2023-08-06T09:52:57;4.75;;;1.73;;
19225;SDS011;9747;48.536;12.522;2023-08-06T09:55:25;3.03;;;1.65;;
19225;SDS011;9747;48.536;12.522;2023-08-06T09:57:53;2.55;;;1.27;;
19225;SDS011;9747;48.536;12.522;2023-08-06T10:00:21;1.88;;;1.00;;
19225;SDS011;9747;48.536;12.522;2023-08-06T10:02:48;2.13;;;1.02;;
19225;SDS011;9747;48.536;12.522;2023-08-06T10:05:20;2.53;;;1.20;;
19225;SDS011;9747;48.536;12.522;2023-08-06T10:07:50;1.75;;;1.10;;
19225;SDS011;9747;48.536;12.522;2023-08-06T10:10:18;1.67;;;1.25;;
19225;SDS011;9747;48.536;12.522;2023-08-06T10:12:46;2.05;;;1.65;;
19225;SDS011;9747;48.536;12.522;2023-08-06T10:15:17;2.03;;;1.10;;
19225;SDS011;9747;48.536;12.522;2023-08-06T10:17:49;1.35;;;0.90;;
19225;SDS011;9747;48.536;12.522;2023-08-06T10:20:19;1.95;;;1.17;;
19225;SDS011;9747;48.536;12.522;2023-08-06T10:25:00;3.28;;;1.20;;
19225;SDS011;9747;48.536;12.522;2023-08-06T10:27:31;2.47;;;1.25;;
19225;SDS011;9747;48.536;12.522;2023-08-06T10:32:50;3.20;;;1.30;;
19225;SDS011;9747;48.536;12.522;2023-08-06T10:35:31;2.50;;;1.40;;
19225;SDS011;9747;48.536;12.522;2023-08-06T10:38:03;3.38;;;1.35;;
19225;SDS011;9747;48.536;12.522;2023-08-06T10:40:33;3.65;;;1.83;;
19225;SDS011;9747;48.536;12.522;2023-08-06T10:43:01;1.95;;;1.50;;
19225;SDS011;9747;48.536;12.522;2023-08-06T10:45:29;1.38;;;1.27;;
19225;SDS011;9747;48.536;12.522;2023-08-06T10:47:57;2.78;;;1.40;;
19225;SDS011;9747;48.536;12.522;2023-08-06T10:50:25;2.58;;;1.73;;
19225;SDS011;9747;48.536;12.522;2023-08-06T10:52:52;1.45;;;1.35;;
19225;SDS011;9747;48.536;12.522;2023-08-06T10:55:23;3.97;;;1.38;;
19225;SDS011;9747;48.536;12.522;2023-08-06T10:57:55;4.43;;;1.25;;
19225;SDS011;9747;48.536;12.522;2023-08-06T11:00:23;4.30;;;1.30;;
19225;SDS011;9747;48.536;12.522;2023-08-06T11:02:51;2.88;;;1.38;;
19225;SDS011;9747;48.536;12.522;2023-08-06T11:05:20;5.82;;;1.40;;
19225;SDS011;9747;48.536;12.522;2023-08-06T11:07:47;1.23;;;1.10;;
19225;SDS011;9747;48.536;12.522;2023-08-06T11:10:16;2.40;;;1.40;;
19225;SDS011;9747;48.536;12.522;2023-08-06T11:12:44;1.33;;;1.13;;
19225;SDS011;9747;48.536;12.522;2023-08-06T11:15:13;3.80;;;0.90;;
19225;SDS011;9747;48.536;12.522;2023-08-06T11:17:40;2.17;;;0.93;;
19225;SDS011;9747;48.536;12.522;2023-08-06T11:20:08;2.65;;;0.70;;
19225;SDS011;9747;48.536;12.522;2023-08-06T11:22:36;1.50;;;0.70;;
19225;SDS011;9747;48.536;12.522;2023-08-06T11:25:05;1.45;;;0.68;;
19225;SDS011;9747;48.536;12.522;2023-08-06T11:27:33;1.50;;;0.60;;
19225;SDS011;9747;48.536;12.522;2023-08-06T11:30:01;1.48;;;0.68;;
19225;SDS011;9747;48.536;12.522;2023-08-06T11:32:30;2.50;;;0.47;;
19225;SDS011;9747;48.536;12.522;2023-08-06T11:34:58;0.50;;;0.50;;
19225;SDS011;9747;48.536;12.522;2023-08-06T11:37:35;1.42;;;0.60;;
19225;SDS011;9747;48.536;12.522;2023-08-06T11:40:05;0.50;;;0.50;;
19225;SDS011;9747;48.536;12.522;2023-08-06T11:42:36;0.60;;;0.60;;
19225;SDS011;9747;48.536;12.522;2023-08-06T11:45:04;0.43;;;0.43;;
19225;SDS011;9747;48.536;12.522;2023-08-06T11:47:36;1.52;;;0.70;;
19225;SDS011;9747;48.536;12.522;2023-08-06T11:50:06;0.82;;;0.55;;
19225;SDS011;9747;48.536;12.522;2023-08-06T11:52:34;0.88;;;0.63;;
19225;SDS011;9747;48.536;12.522;2023-08-06T11:55:05;2.67;;;0.60;;
19225;SDS011;9747;48.536;12.522;2023-08-06T11:57:35;1.63;;;0.85;;
19225;SDS011;9747;48.536;12.522;2023-08-06T12:00:05;0.85;;;0.55;;
19225;SDS011;9747;48.536;12.522;2023-08-06T12:02:45;1.00;;;0.50;;
19225;SDS011;9747;48.536;12.522;2023-08-06T12:05:14;1.45;;;0.50;;
19225;SDS011;9747;48.536;12.522;2023-08-06T12:07:43;1.85;;;0.80;;
19225;SDS011;9747;48.536;12.522;2023-08-06T12:10:11;0.93;;;0.60;;
19225;SDS011;9747;48.536;12.522;2023-08-06T12:12:39;0.98;;;0.47;;
19225;SDS011;9747;48.536;12.522;2023-08-06T12:15:07;0.75;;;0.70;;
19225;SDS011;9747;48.536;12.522;2023-08-06T12:17:36;1.15;;;0.82;;
19225;SDS011;9747;48.536;12.522;2023-08-06T12:20:06;1.05;;;0.63;;
19225;SDS011;9747;48.536;12.522;2023-08-06T12:22:34;0.80;;;0.60;;
19225;SDS011;9747;48.536;12.522;2023-08-06T12:25:05;1.17;;;0.70;;
19225;SDS011;9747;48.536;12.522;2023-08-06T12:27:37;0.73;;;0.70;;
19225;SDS011;9747;48.536;12.522;2023-08-06T12:30:05;0.60;;;0.60;;
19225;SDS011;9747;48.536;12.522;2023-08-06T12:32:33;0.65;;;0.65;;
19225;SDS011;9747;48.536;12.522;2023-08-06T12:35:01;1.27;;;0.70;;
19225;SDS011;9747;48.536;12.522;2023-08-06T12:37:31;0.98;;;0.60;;
19225;SDS011;9747;48.536;12.522;2023-08-06T12:39:58;1.15;;;0.50;;
19225;SDS011;9747;48.536;12.522;2023-08-06T12:42:26;2.20;;;0.68;;
19225;SDS011;9747;48.536;12.522;2023-08-06T12:44:53;0.60;;;0.60;;
19225;SDS011;9747;48.536;12.522;2023-08-06T12:47:21;1.27;;;0.40;;
19225;SDS011;9747;48.536;12.522;2023-08-06T12:49:49;1.75;;;0.60;;
19225;SDS011;9747;48.536;12.522;2023-08-06T12:52:16;1.75;;;0.50;;
19225;SDS011;9747;48.536;12.522;2023-08-06T12:54:46;1.92;;;0.52;;
19225;SDS011;9747;48.536;12.522;2023-08-06T12:57:13;0.82;;;0.60;;
19225;SDS011;9747;48.536;12.522;2023-08-06T12:59:41;0.70;;;0.60;;
19225;SDS011;9747;48.536;12.522;2023-08-06T13:02:08;1.40;;;0.70;;
19225;SDS011;9747;48.536;12.522;2023-08-06T13:04:35;0.52;;;0.50;;
19225;SDS011;9747;48.536;12.522;2023-08-06T13:07:03;0.50;;;0.50;;
19225;SDS011;9747;48.536;12.522;2023-08-06T13:09:31;0.75;;;0.40;;
19225;SDS011;9747;48.536;12.522;2023-08-06T13:12:00;1.30;;;0.47;;
19225;SDS011;9747;48.536;12.522;2023-08-06T13:14:30;1.70;;;0.40;;
19225;SDS011;9747;48.536;12.522;2023-08-06T13:16:58;1.15;;;0.50;;
19225;SDS011;9747;48.536;12.522;2023-08-06T13:19:26;1.02;;;0.35;;
19225;SDS011;9747;48.536;12.522;2023-08-06T13:22:01;0.35;;;0.30;;
19225;SDS011;9747;48.536;12.522;2023-08-06T13:24:31;1.02;;;0.32;;
19225;SDS011;9747;48.536;12.522;2023-08-06T13:27:01;0.22;;;0.22;;
19225;SDS011;9747;48.536;12.522;2023-08-06T13:29:28;0.52;;;0.30;;
19225;SDS011;9747;48.536;12.522;2023-08-06T13:31:56;0.60;;;0.40;;
19225;SDS011;9747;48.536;12.522;2023-08-06T13:34:23;1.05;;;0.25;;
19225;SDS011;9747;48.536;12.522;2023-08-06T13:36:51;3.03;;;0.30;;
19225;SDS011;9747;48.536;12.522;2023-08-06T13:39:19;0.52;;;0.40;;
19225;SDS011;9747;48.536;12.522;2023-08-06T13:41:46;2.30;;;0.50;;
19225;SDS011;9747;48.536;12.522;2023-08-06T13:44:15;0.55;;;0.55;;
19225;SDS011;9747;48.536;12.522;2023-08-06T13:46:43;1.67;;;0.50;;
19225;SDS011;9747;48.536;12.522;2023-08-06T13:49:10;1.02;;;0.30;;
19225;SDS011;9747;48.536;12.522;2023-08-06T13:51:37;1.45;;;0.50;;
19225;SDS011;9747;48.536;12.522;2023-08-06T13:54:05;2.67;;;0.45;;
19225;SDS011;9747;48.536;12.522;2023-08-06T13:56:32;1.20;;;0.40;;
19225;SDS011;9747;48.536;12.522;2023-08-06T13:59:01;1.42;;;0.55;;
19225;SDS011;9747;48.536;12.522;2023-08-06T14:01:30;1.92;;;1.05;;
19225;SDS011;9747;48.536;12.522;2023-08-06T14:03:58;4.20;;;1.08;;
19225;SDS011;9747;48.536;12.522;2023-08-06T14:06:25;6.30;;;1.15;;
19225;SDS011;9747;48.536;12.522;2023-08-06T14:08:53;1.63;;;0.90;;
19225;SDS011;9747;48.536;12.522;2023-08-06T14:11:20;3.13;;;1.20;;
19225;SDS011;9747;48.536;12.522;2023-08-06T14:13:48;5.80;;;1.13;;
19225;SDS011;9747;48.536;12.522;2023-08-06T14:16:15;4.60;;;1.63;;
19225;SDS011;9747;48.536;12.522;2023-08-06T14:18:44;4.25;;;1.30;;
19225;SDS011;9747;48.536;12.522;2023-08-06T14:21:12;2.00;;;1.10;;
19225;SDS011;9747;48.536;12.522;2023-08-06T14:23:40;4.63;;;1.10;;
19225;SDS011;9747;48.536;12.522;2023-08-06T14:26:07;2.17;;;0.88;;
19225;SDS011;9747;48.536;12.522;2023-08-06T14:28:36;1.08;;;0.82;;
19225;SDS011;9747;48.536;12.522;2023-08-06T14:31:03;1.60;;;0.63;;
19225;SDS011;9747;48.536;12.522;2023-08-06T14:33:31;1.25;;;0.60;;
19225;SDS011;9747;48.536;12.522;2023-08-06T14:36:00;0.75;;;0.60;;
19225;SDS011;9747;48.536;12.522;2023-08-06T14:38:28;3.10;;;1.10;;
19225;SDS011;9747;48.536;12.522;2023-08-06T14:40:55;4.18;;;0.70;;
19225;SDS011;9747;48.536;12.522;2023-08-06T14:43:23;2.45;;;0.70;;
19225;SDS011;9747;48.536;12.522;2023-08-06T14:45:51;3.30;;;0.65;;
19225;SDS011;9747;48.536;12.522;2023-08-06T14:48:18;1.60;;;0.40;;
19225;SDS011;9747;48.536;12.522;2023-08-06T14:50:46;2.15;;;0.60;;
19225;SDS011;9747;48.536;12.522;2023-08-06T14:53:14;1.20;;;0.35;;
19225;SDS011;9747;48.536;12.522;2023-08-06T14:55:42;0.85;;;0.38;;
19225;SDS011;9747;48.536;12.522;2023-08-06T14:58:09;1.85;;;0.43;;
19225;SDS011;9747;48.536;12.522;2023-08-06T15:00:37;0.40;;;0.40;;